createdAt,value
2023-06-10T00:00:45.416Z,5.50
2023-06-10T00:03:14.054Z,5.15
2023-06-10T00:05:40.940Z,5.03
2023-06-10T00:08:08.585Z,5.10
2023-06-10T00:10:37.053Z,5.25
2023-06-10T00:13:12.079Z,5.30
2023-06-10T00:15:39.343Z,5.13
2023-06-10T00:18:06.468Z,5.68
2023-06-10T00:20:33.646Z,5.38
2023-06-10T00:23:02.536Z,5.60
2023-06-10T00:25:29.338Z,5.38
2023-06-10T00:27:56.661Z,5.95
2023-06-10T00:30:23.530Z,6.60
2023-06-10T00:32:50.499Z,6.63
2023-06-10T00:35:17.392Z,6.70
2023-06-10T00:37:44.240Z,6.07
2023-06-10T00:40:12.010Z,6.40
2023-06-10T00:42:39.066Z,6.32
2023-06-10T00:45:07.757Z,5.88
2023-06-10T00:47:36.477Z,6.55
2023-06-10T00:50:04.722Z,6.47
2023-06-10T00:52:31.905Z,6.13
2023-06-10T00:55:00.393Z,6.78
2023-06-10T00:57:27.694Z,6.82
2023-06-10T00:59:55.670Z,6.57
2023-06-10T01:02:22.678Z,6.55
2023-06-10T01:04:50.309Z,6.93
2023-06-10T01:08:26.799Z,7.40
2023-06-10T01:11:06.081Z,7.20
2023-06-10T01:13:34.615Z,6.63
2023-06-10T01:16:01.779Z,7.07
2023-06-10T01:18:32.542Z,7.05
2023-06-10T01:20:59.428Z,6.85
2023-06-10T01:23:26.513Z,6.72
2023-06-10T01:26:07.613Z,6.80
2023-06-10T01:28:39.698Z,7.28
2023-06-10T01:31:24.924Z,7.05
2023-06-10T01:33:54.170Z,7.03
2023-06-10T01:36:22.888Z,6.85
2023-06-10T01:38:51.608Z,6.82
2023-06-10T01:41:19.641Z,6.70
2023-06-10T01:43:47.701Z,7.30
2023-06-10T01:46:16.365Z,7.13
2023-06-10T01:48:43.499Z,7.15
2023-06-10T01:51:10.370Z,6.90
2023-06-10T01:53:37.255Z,7.55
2023-06-10T01:56:04.127Z,7.35
2023-06-10T01:58:31.510Z,7.00
2023-06-10T02:00:58.426Z,7.22
2023-06-10T02:03:25.460Z,7.40
2023-06-10T02:05:52.356Z,7.20
2023-06-10T02:08:19.155Z,7.85
2023-06-10T02:10:45.913Z,7.53
2023-06-10T02:13:12.716Z,7.00
2023-06-10T02:15:39.515Z,7.05
2023-06-10T02:18:06.852Z,6.80
2023-06-10T02:20:33.660Z,7.03
2023-06-10T02:23:00.938Z,7.60
2023-06-10T02:25:27.702Z,7.40
2023-06-10T02:27:54.563Z,7.65
2023-06-10T02:30:21.323Z,8.13
2023-06-10T02:32:48.726Z,7.65
2023-06-10T02:35:16.763Z,7.20
2023-06-10T02:37:44.034Z,7.63
2023-06-10T02:40:11.657Z,7.88
2023-06-10T02:42:38.626Z,7.28
2023-06-10T02:45:06.812Z,7.30
2023-06-10T02:47:33.969Z,7.68
2023-06-10T02:50:00.843Z,7.07
2023-06-10T02:52:27.646Z,7.00
2023-06-10T02:54:54.481Z,7.13
2023-06-10T02:57:21.255Z,6.93
2023-06-10T02:59:48.073Z,7.10
2023-06-10T03:02:14.893Z,6.80
2023-06-10T03:04:42.139Z,7.93
2023-06-10T03:07:09.449Z,7.15
2023-06-10T03:09:36.301Z,7.32
2023-06-10T03:12:03.430Z,7.32
2023-06-10T03:14:30.234Z,6.70
2023-06-10T03:16:57.236Z,7.47
2023-06-10T03:19:24.323Z,7.63
2023-06-10T03:21:59.830Z,7.50
2023-06-10T03:24:26.629Z,7.13
2023-06-10T03:26:53.410Z,8.05
2023-06-10T03:29:20.518Z,7.20
2023-06-10T03:31:47.520Z,7.50
2023-06-10T03:34:14.338Z,7.10
2023-06-10T03:36:43.761Z,7.20
2023-06-10T03:39:11.502Z,7.32
2023-06-10T03:41:38.290Z,6.95
2023-06-10T03:44:05.251Z,7.30
2023-06-10T03:46:32.084Z,7.20
2023-06-10T03:49:01.509Z,7.60
2023-06-10T03:51:28.596Z,7.18
2023-06-10T03:53:55.367Z,7.40
2023-06-10T03:56:22.328Z,7.97
2023-06-10T03:58:49.092Z,7.47
2023-06-10T04:24:29.424Z,5.85
2023-06-10T04:26:56.185Z,6.18
2023-06-10T04:29:22.946Z,6.43
2023-06-10T04:31:49.946Z,5.70
2023-06-10T04:34:16.770Z,5.97
2023-06-10T04:36:43.798Z,5.88
2023-06-10T04:39:10.566Z,5.88
2023-06-10T04:41:37.455Z,5.97
2023-06-10T04:44:04.425Z,5.80
2023-06-10T04:46:32.931Z,5.97
2023-06-10T04:48:59.779Z,5.43
2023-06-10T04:51:27.053Z,5.50
2023-06-10T04:53:54.430Z,5.65
2023-06-10T04:56:21.285Z,5.78
2023-06-10T04:58:48.129Z,5.80
2023-06-10T05:01:14.899Z,5.75
2023-06-10T05:03:41.749Z,5.20
2023-06-10T05:06:08.890Z,5.35
2023-06-10T05:08:35.650Z,5.93
2023-06-10T05:11:02.924Z,5.68
2023-06-10T05:13:29.702Z,4.88
2023-06-10T05:15:56.541Z,5.05
2023-06-10T05:18:23.383Z,5.30
2023-06-10T05:20:50.488Z,5.10
2023-06-10T05:23:17.299Z,5.03
2023-06-10T05:25:44.716Z,4.90
2023-06-10T05:28:15.411Z,4.95
2023-06-10T05:30:42.743Z,4.85
2023-06-10T05:33:09.528Z,5.00
2023-06-10T05:35:36.393Z,5.30
2023-06-10T05:38:04.314Z,4.78
2023-06-10T05:40:31.211Z,5.00
2023-06-10T05:42:57.971Z,4.70
2023-06-10T05:45:24.822Z,5.40
2023-06-10T05:47:51.928Z,4.90
2023-06-10T05:50:18.856Z,5.18
2023-06-10T05:52:45.690Z,4.93
2023-06-10T05:55:12.685Z,4.90
2023-06-10T05:57:39.621Z,4.97
2023-06-10T06:00:07.420Z,4.47
2023-06-10T06:02:34.325Z,5.10
2023-06-10T06:05:01.160Z,5.07
2023-06-10T06:07:28.051Z,4.88
2023-06-10T06:09:54.911Z,4.53
2023-06-10T06:12:21.690Z,4.68
2023-06-10T06:14:50.211Z,4.45
2023-06-10T06:17:16.963Z,4.60
2023-06-10T06:19:44.495Z,4.60
2023-06-10T06:22:11.334Z,4.47
2023-06-10T06:24:38.196Z,4.65
2023-06-10T06:27:05.886Z,4.55
2023-06-10T06:29:32.733Z,4.60
2023-06-10T06:31:59.978Z,4.55
2023-06-10T06:34:26.804Z,4.50
2023-06-10T06:36:53.567Z,4.35
2023-06-10T06:39:20.329Z,4.68
2023-06-10T06:41:47.223Z,5.05
2023-06-10T06:44:14.019Z,4.65
2023-06-10T06:46:40.859Z,4.70
2023-06-10T06:49:07.753Z,4.80
2023-06-10T06:51:34.511Z,4.90
2023-06-10T06:54:01.459Z,5.00
2023-06-10T06:56:29.176Z,4.75
2023-06-10T06:58:57.997Z,4.93
2023-06-10T07:01:25.779Z,4.68
2023-06-10T07:03:52.676Z,5.07
2023-06-10T07:06:19.450Z,4.35
2023-06-10T07:08:46.327Z,4.80
2023-06-10T07:11:13.158Z,5.05
2023-06-10T07:13:39.997Z,4.72
2023-06-10T07:16:06.783Z,4.40
2023-06-10T07:18:33.597Z,4.47
2023-06-10T07:21:00.425Z,4.57
2023-06-10T07:23:27.336Z,4.55
2023-06-10T07:25:54.150Z,4.72
2023-06-10T07:28:20.983Z,4.70
2023-06-10T07:30:47.921Z,4.30
2023-06-10T07:33:14.720Z,4.40
2023-06-10T07:35:44.008Z,4.50
2023-06-10T07:38:10.831Z,4.35
2023-06-10T07:40:37.614Z,4.45
2023-06-10T07:43:04.413Z,4.35
2023-06-10T07:45:31.255Z,4.07
2023-06-10T07:47:58.162Z,3.83
2023-06-10T07:50:25.062Z,4.20
2023-06-10T07:52:52.042Z,4.38
2023-06-10T07:55:18.875Z,4.00
2023-06-10T07:57:45.707Z,3.90
2023-06-10T08:00:13.019Z,4.07
2023-06-10T08:02:40.550Z,4.25
2023-06-10T08:05:08.299Z,3.83
2023-06-10T08:07:35.535Z,4.32
2023-06-10T08:10:03.304Z,3.70
2023-06-10T08:12:30.148Z,3.35
2023-06-10T08:14:57.092Z,3.83
2023-06-10T08:17:36.165Z,4.20
2023-06-10T08:20:03.277Z,4.00
2023-06-10T08:22:30.591Z,4.43
2023-06-10T08:24:57.428Z,3.70
2023-06-10T08:27:24.252Z,3.85
2023-06-10T08:29:51.057Z,3.90
2023-06-10T08:32:17.932Z,4.03
2023-06-10T08:34:44.722Z,4.10
2023-06-10T08:37:11.488Z,3.90
2023-06-10T08:39:38.379Z,4.03
2023-06-10T08:42:34.520Z,3.90
2023-06-10T08:45:03.823Z,3.63
2023-06-10T08:47:36.561Z,4.23
2023-06-10T08:50:05.458Z,4.28
2023-06-10T08:52:45.247Z,4.30
2023-06-10T08:55:23.573Z,4.32
2023-06-10T08:57:50.805Z,4.25
2023-06-10T09:00:18.296Z,4.10
2023-06-10T09:02:45.635Z,3.88
2023-06-10T09:05:13.071Z,3.78
2023-06-10T09:07:40.247Z,4.10
2023-06-10T09:10:08.743Z,4.55
2023-06-10T09:12:36.672Z,5.55
2023-06-10T09:15:04.259Z,3.60
2023-06-10T09:17:31.444Z,4.35
2023-06-10T09:19:58.340Z,4.20
2023-06-10T09:23:43.889Z,4.13
2023-06-10T09:26:12.303Z,4.43
2023-06-10T09:28:40.166Z,3.80
2023-06-10T09:31:08.357Z,4.43
2023-06-10T09:33:40.440Z,4.25
2023-06-10T09:36:07.687Z,4.47
2023-06-10T09:38:36.257Z,3.53
2023-06-10T09:41:04.568Z,4.20
2023-06-10T09:43:47.551Z,4.25
2023-06-10T09:46:18.984Z,4.30
2023-06-10T09:48:48.574Z,4.15
2023-06-10T09:51:20.069Z,3.95
2023-06-10T09:53:53.240Z,4.22
2023-06-10T09:56:20.728Z,4.28
2023-06-10T09:58:47.948Z,3.80
2023-06-10T10:01:16.715Z,4.25
2023-06-10T10:03:55.586Z,4.20
2023-06-10T10:06:22.466Z,4.63
2023-06-10T10:08:51.757Z,4.35
2023-06-10T10:11:22.975Z,4.07
2023-06-10T10:13:51.928Z,4.47
2023-06-10T10:16:31.372Z,4.38
2023-06-10T10:19:16.184Z,4.20
2023-06-10T10:22:12.353Z,4.15
2023-06-10T10:24:52.319Z,4.10
2023-06-10T10:27:32.377Z,4.53
2023-06-10T10:30:00.608Z,4.25
2023-06-10T10:32:44.749Z,4.45
2023-06-10T10:35:20.188Z,4.35
2023-06-10T10:37:47.652Z,4.43
2023-06-10T10:40:15.757Z,4.50
2023-06-10T10:42:43.507Z,4.75
2023-06-10T10:45:11.335Z,4.22
2023-06-10T10:47:40.415Z,4.72
2023-06-10T10:50:18.901Z,4.28
2023-06-10T10:53:02.928Z,4.40
2023-06-10T10:55:30.213Z,4.68
2023-06-10T10:58:10.571Z,4.10
2023-06-10T11:00:44.506Z,4.60
2023-06-10T11:03:18.022Z,4.00
2023-06-10T11:05:50.308Z,5.20
2023-06-10T11:08:40.508Z,4.65
2023-06-10T11:11:50.630Z,4.63
2023-06-10T11:14:31.206Z,4.70
2023-06-10T11:16:59.401Z,4.70
2023-06-10T11:19:47.852Z,4.90
2023-06-10T11:22:21.254Z,4.72
2023-06-10T11:24:51.995Z,4.90
2023-06-10T11:27:25.536Z,4.45
2023-06-10T11:30:06.693Z,4.53
2023-06-10T11:32:35.839Z,5.18
2023-06-10T11:35:08.817Z,4.97
2023-06-10T11:37:36.404Z,4.85
2023-06-10T11:40:04.117Z,4.30
2023-06-10T11:42:30.999Z,4.75
2023-06-10T11:44:57.774Z,4.70
2023-06-10T11:47:24.593Z,4.72
2023-06-10T11:49:58.134Z,4.55
2023-06-10T11:52:39.081Z,3.97
2023-06-10T11:55:09.325Z,4.50
2023-06-10T11:57:37.758Z,4.30
2023-06-10T12:00:08.553Z,4.32
2023-06-10T12:02:35.608Z,4.10
2023-06-10T12:05:16.376Z,4.32
2023-06-10T12:07:43.202Z,4.10
2023-06-10T12:10:26.229Z,4.30
2023-06-10T12:12:53.513Z,4.45
2023-06-10T12:15:26.692Z,4.28
2023-06-10T12:17:53.635Z,4.45
2023-06-10T12:20:37.217Z,4.25
2023-06-10T12:23:11.451Z,4.45
2023-06-10T12:25:40.719Z,4.20
2023-06-10T12:28:11.709Z,4.00
2023-06-10T12:30:38.541Z,4.10
2023-06-10T12:33:05.410Z,4.22
2023-06-10T12:35:32.272Z,4.20
2023-06-10T12:38:09.208Z,4.30
2023-06-10T12:40:41.392Z,4.40
2023-06-10T12:43:08.598Z,4.45
2023-06-10T12:45:41.267Z,4.57
2023-06-10T12:48:09.892Z,4.40
2023-06-10T12:50:42.156Z,4.13
2023-06-10T12:53:12.269Z,4.32
2023-06-10T12:55:39.655Z,4.05
2023-06-10T12:58:06.449Z,3.80
2023-06-10T13:00:35.711Z,4.30
2023-06-10T13:03:04.052Z,4.10
2023-06-10T13:05:31.233Z,4.18
2023-06-10T13:07:58.633Z,4.00
2023-06-10T13:10:26.750Z,3.80
2023-06-10T13:12:55.722Z,4.20
2023-06-10T13:15:23.136Z,4.07
2023-06-10T13:17:53.096Z,4.13
2023-06-10T13:20:21.637Z,4.53
2023-06-10T13:22:48.888Z,4.90
2023-06-10T13:25:16.269Z,4.80
2023-06-10T13:27:43.786Z,4.68
2023-06-10T13:30:12.047Z,4.65
2023-06-10T13:32:39.577Z,4.20
2023-06-10T13:35:08.294Z,4.60
2023-06-10T13:37:35.517Z,3.97
2023-06-10T13:40:03.635Z,4.18
2023-06-10T13:42:30.571Z,4.43
2023-06-10T13:45:00.186Z,4.95
2023-06-10T13:47:27.669Z,4.30
2023-06-10T13:49:54.500Z,4.63
2023-06-10T13:52:21.376Z,4.20
2023-06-10T13:54:48.156Z,4.32
2023-06-10T13:57:14.926Z,4.00
2023-06-10T13:59:41.718Z,4.10
2023-06-10T14:02:08.558Z,4.22
2023-06-10T14:04:35.391Z,4.10
2023-06-10T14:07:02.186Z,4.10
2023-06-10T14:09:28.975Z,4.28
2023-06-10T14:11:55.935Z,4.10
2023-06-10T14:14:23.848Z,4.28
2023-06-10T14:16:50.667Z,4.30
2023-06-10T14:19:17.466Z,4.60
2023-06-10T14:21:44.233Z,4.40
2023-06-10T14:24:11.232Z,4.97
2023-06-10T14:26:38.946Z,4.95
2023-06-10T14:29:06.007Z,4.70
2023-06-10T14:31:32.922Z,3.90
2023-06-10T14:34:00.177Z,4.55
2023-06-10T14:36:27.038Z,4.40
2023-06-10T14:38:54.735Z,4.07
2023-06-10T14:41:23.256Z,4.10
2023-06-10T14:43:50.066Z,4.28
2023-06-10T14:46:16.958Z,4.30
2023-06-10T14:48:43.917Z,3.90
2023-06-10T14:51:10.724Z,4.43
2023-06-10T14:53:37.489Z,4.10
2023-06-10T14:56:04.635Z,4.18
2023-06-10T14:58:31.430Z,4.65
2023-06-10T15:00:58.202Z,4.38
2023-06-10T15:03:24.962Z,4.30
2023-06-10T15:05:51.787Z,4.00
2023-06-10T15:08:18.577Z,4.35
2023-06-10T15:10:45.370Z,4.10
2023-06-10T15:13:12.138Z,4.65
2023-06-10T15:15:38.887Z,4.32
2023-06-10T15:18:05.721Z,4.30
2023-06-10T15:20:32.598Z,4.85
2023-06-10T15:22:59.367Z,4.45
2023-06-10T15:25:31.191Z,4.00
2023-06-10T15:27:58.912Z,4.80
2023-06-10T15:30:25.704Z,3.90
2023-06-10T15:32:52.604Z,4.50
2023-06-10T15:35:19.536Z,4.18
2023-06-10T15:37:46.434Z,4.55
2023-06-10T15:40:13.227Z,4.43
2023-06-10T15:42:40.062Z,4.90
2023-06-10T15:45:08.036Z,4.38
2023-06-10T15:47:35.221Z,4.63
2023-06-10T15:50:02.084Z,4.80
2023-06-10T15:52:28.883Z,4.45
2023-06-10T15:54:55.633Z,4.40
2023-06-10T15:57:24.915Z,3.95
2023-06-10T15:59:53.619Z,4.18
2023-06-10T16:02:20.673Z,4.65
2023-06-10T16:04:47.467Z,4.10
2023-06-10T16:07:14.239Z,4.40
2023-06-10T16:09:41.063Z,4.55
2023-06-10T16:12:08.657Z,4.35
2023-06-10T16:14:35.757Z,4.85
2023-06-10T16:17:02.546Z,4.50
2023-06-10T16:19:29.633Z,4.20
2023-06-10T16:21:56.508Z,4.63
2023-06-10T16:24:24.283Z,4.60
2023-06-10T16:26:51.095Z,4.30
2023-06-10T16:29:18.325Z,4.07
2023-06-10T16:31:46.226Z,4.60
2023-06-10T16:34:13.346Z,4.00
2023-06-10T16:36:40.249Z,4.07
2023-06-10T16:39:07.121Z,4.05
2023-06-10T16:41:33.929Z,3.90
2023-06-10T16:44:04.015Z,3.75
2023-06-10T16:46:31.306Z,4.30
2023-06-10T16:48:58.258Z,4.57
2023-06-10T16:51:25.195Z,4.15
2023-06-10T16:53:52.238Z,4.20
2023-06-10T16:56:19.168Z,4.40
2023-06-10T16:58:46.266Z,4.10
2023-06-10T17:01:13.457Z,4.03
2023-06-10T17:03:41.292Z,4.07
2023-06-10T17:06:08.088Z,4.43
2023-06-10T17:08:34.824Z,3.97
2023-06-10T17:11:01.861Z,4.03
2023-06-10T17:13:28.864Z,4.25
2023-06-10T17:15:56.941Z,4.07
2023-06-10T17:18:24.380Z,3.97
2023-06-10T17:20:51.332Z,4.03
2023-06-10T17:23:18.197Z,4.53
2023-06-10T17:25:45.367Z,4.18
2023-06-10T17:28:12.280Z,4.10
2023-06-10T17:30:39.090Z,4.22
2023-06-10T17:33:06.123Z,4.55
2023-06-10T17:35:33.055Z,4.25
2023-06-10T17:37:59.847Z,4.28
2023-06-10T17:40:26.750Z,4.10
2023-06-10T17:42:53.952Z,4.20
2023-06-10T17:45:22.017Z,3.90
2023-06-10T17:47:48.843Z,3.90
2023-06-10T17:50:19.125Z,4.60
2023-06-10T17:55:13.596Z,4.07
2023-06-10T17:57:40.710Z,3.92
2023-06-10T18:00:09.753Z,4.00
2023-06-10T18:02:36.740Z,4.20
2023-06-10T18:05:03.960Z,3.63
2023-06-10T18:07:31.330Z,3.92
2023-06-10T18:09:58.577Z,4.25
2023-06-10T18:12:25.591Z,3.78
2023-06-10T18:14:52.413Z,4.10
2023-06-10T18:17:19.280Z,3.97
2023-06-10T18:19:46.112Z,4.00
2023-06-10T18:22:13.067Z,3.75
2023-06-10T18:24:39.900Z,3.92
2023-06-10T18:27:08.739Z,3.78
2023-06-10T18:29:35.832Z,3.80
2023-06-10T18:32:02.689Z,4.40
2023-06-10T18:34:30.328Z,3.80
2023-06-10T18:36:57.381Z,4.07
2023-06-10T18:39:24.204Z,4.03
2023-06-10T18:41:51.453Z,3.72
2023-06-10T18:44:18.347Z,3.92
2023-06-10T18:46:45.221Z,3.80
2023-06-10T18:49:12.085Z,3.85
2023-06-10T18:51:38.893Z,3.83
2023-06-10T18:54:05.778Z,3.80
2023-06-10T18:56:32.553Z,3.60
2023-06-10T18:58:59.322Z,4.10
2023-06-10T19:01:26.404Z,3.78
2023-06-10T19:03:53.369Z,3.92
2023-06-10T19:06:20.358Z,4.05
2023-06-10T19:08:47.404Z,3.78
2023-06-10T19:11:14.384Z,3.63
2023-06-10T19:13:41.635Z,3.90
2023-06-10T19:16:08.521Z,4.20
2023-06-10T19:18:35.557Z,4.15
2023-06-10T19:21:04.500Z,3.70
2023-06-10T19:23:33.302Z,3.92
2023-06-10T19:26:01.120Z,3.47
2023-06-10T19:28:27.910Z,4.05
2023-06-10T19:30:54.742Z,3.92
2023-06-10T19:33:21.564Z,4.15
2023-06-10T19:35:48.366Z,3.60
2023-06-10T19:38:15.290Z,3.55
2023-06-10T19:40:42.044Z,4.00
2023-06-10T19:43:08.837Z,3.92
2023-06-10T19:45:35.726Z,3.70
2023-06-10T19:48:02.618Z,4.00
2023-06-10T19:50:29.570Z,3.90
2023-06-10T19:52:56.406Z,3.83
2023-06-10T19:55:23.156Z,4.13
2023-06-10T19:57:50.088Z,4.10
2023-06-10T20:00:17.311Z,3.70
2023-06-10T20:02:44.207Z,3.78
2023-06-10T20:05:11.295Z,3.67
2023-06-10T20:07:38.536Z,4.20
2023-06-10T20:10:05.891Z,4.18
2023-06-10T20:12:32.690Z,3.90
2023-06-10T20:14:59.428Z,4.35
2023-06-10T20:17:27.944Z,3.88
2023-06-10T20:19:54.746Z,3.85
2023-06-10T20:22:21.793Z,4.22
2023-06-10T20:24:51.397Z,3.92
2023-06-10T20:27:18.246Z,4.05
2023-06-10T20:29:45.054Z,4.00
2023-06-10T20:32:11.971Z,4.10
2023-06-10T20:34:38.984Z,3.88
2023-06-10T20:37:05.780Z,4.35
2023-06-10T20:39:32.602Z,4.43
2023-06-10T20:41:59.458Z,4.10
2023-06-10T20:44:26.317Z,4.10
2023-06-10T20:46:53.089Z,4.05
2023-06-10T20:49:19.838Z,4.20
2023-06-10T20:51:46.614Z,4.30
2023-06-10T20:54:13.485Z,4.47
2023-06-10T20:56:42.326Z,4.63
2023-06-10T20:59:09.188Z,4.38
2023-06-10T21:01:36.234Z,4.57
2023-06-10T21:04:03.097Z,4.32
2023-06-10T21:06:29.970Z,4.35
2023-06-10T21:08:57.692Z,4.40
2023-06-10T21:11:24.707Z,4.28
2023-06-10T21:13:51.486Z,4.43
2023-06-10T21:16:18.325Z,4.40
2023-06-10T21:18:45.158Z,4.38
2023-06-10T21:21:12.657Z,4.45
2023-06-10T21:23:39.568Z,4.30
2023-06-10T21:26:06.512Z,4.50
2023-06-10T21:28:33.545Z,4.35
2023-06-10T21:31:00.684Z,4.13
2023-06-10T21:33:27.797Z,4.15
2023-06-10T21:35:54.637Z,4.63
2023-06-10T21:38:23.935Z,4.65
2023-06-10T21:40:52.184Z,4.40
2023-06-10T21:43:18.950Z,4.68
2023-06-10T21:45:46.027Z,4.47
2023-06-10T21:48:13.038Z,4.70
2023-06-10T21:50:39.891Z,4.55
2023-06-10T21:53:06.652Z,4.60
2023-06-10T21:55:33.473Z,5.10
2023-06-10T21:58:00.351Z,4.78
2023-06-10T22:00:27.955Z,4.45
2023-06-10T22:02:54.840Z,4.63
2023-06-10T22:05:21.683Z,4.63
2023-06-10T22:07:48.532Z,4.45
2023-06-10T22:10:15.356Z,4.35
2023-06-10T22:12:42.138Z,5.15
2023-06-10T22:15:09.523Z,5.10
2023-06-10T22:17:36.550Z,4.57
2023-06-10T22:20:04.293Z,4.38
2023-06-10T22:22:33.654Z,4.88
2023-06-10T22:25:00.397Z,4.82
2023-06-10T22:27:27.201Z,4.60
2023-06-10T22:29:53.983Z,4.55
2023-06-10T22:32:20.869Z,4.65
2023-06-10T22:34:47.670Z,4.70
2023-06-10T22:37:14.636Z,4.32
2023-06-10T22:39:41.463Z,4.60
2023-06-10T22:42:10.263Z,4.40
2023-06-10T22:44:37.771Z,4.78
2023-06-10T22:47:05.206Z,4.30
2023-06-10T22:49:31.992Z,4.65
2023-06-10T22:51:58.766Z,4.80
2023-06-10T22:54:28.200Z,4.38
2023-06-10T22:56:55.035Z,4.43
2023-06-10T22:59:21.871Z,4.80
2023-06-10T23:01:48.832Z,4.85
2023-06-10T23:04:16.001Z,4.78
2023-06-10T23:06:42.966Z,4.25
2023-06-10T23:09:10.945Z,4.80
2023-06-10T23:11:38.949Z,4.90
2023-06-10T23:14:05.872Z,4.93
2023-06-10T23:16:32.787Z,5.00
2023-06-10T23:18:59.747Z,4.68
2023-06-10T23:21:29.806Z,5.00
2023-06-10T23:26:24.744Z,5.47
2023-06-10T23:28:51.580Z,4.90
2023-06-10T23:31:18.401Z,5.20
2023-06-10T23:33:46.673Z,5.15
2023-06-10T23:36:15.020Z,5.03
2023-06-10T23:38:41.783Z,5.63
2023-06-10T23:41:08.724Z,5.78
2023-06-10T23:43:35.520Z,5.38
2023-06-10T23:46:02.370Z,5.40
2023-06-10T23:48:29.201Z,5.60
2023-06-10T23:50:56.084Z,5.40
2023-06-10T23:53:22.896Z,5.90
2023-06-10T23:55:49.677Z,6.15
2023-06-10T23:58:16.426Z,5.90
